Sodus, MI (49126)

4:12 PM EST on February 08, 2016 (GMT -0500)
Upton Middle School | | Change Station
CLOSE
Current Station
Personal Weather Station
Location: Saint Joseph, MI
Elevation: 630 ft
Nearby Weather Stations

Elev 630 ft 42.05 °N, 86.47 °W | Updated 10 minutes ago

Overcast
Overcast
32.5 °F
Feels Like 32 °F
N
2.0
Wind Variable Wind from SSW
Gusts 6.0 mph

Today
High -- | Low -- °F
--% Chance of Precip.
Yesterday
High -- | Low -- °F
Precip. -- in
Pressure 29.67 in
Visibility 7.0 miles
Clouds Overcast 900 ft
Windchill 32 °F
Dew Point 30 °F
Humidity 89%
Rainfall 0.00 in
Snow Depth Not available.
7:51 AM 6:08 PM
New Moon, 0% visible
METAR KBEH 082053Z AUTO 28008KT 7SM OVC009 01/M02 A2964 RMK AO2 UPB1959E04SNB04E47 SLP045 P0004 60004 T00061017 53007
Pressure 29.67 in
Visibility 7.0 miles
Clouds Overcast 900 ft
Windchill 32 °F
Dew Point 30 °F
Humidity 89%
Rainfall 0.00 in
Snow Depth Not available.
7:51 AM 6:08 PM
New Moon, 0% visible
METAR KBEH 082053Z AUTO 28008KT 7SM OVC009 01/M02 A2964 RMK AO2 UPB1959E04SNB04E47 SLP045 P0004 60004 T00061017 53007

10-Day Weather Forecast

Almanac

Astronomy

Feb. 08, 2016 Rise Set
Actual Time
Civil Twilight
Nautical Twilight
Astronomical Twilight
Moon
Length of Visible Light
Length of Day
Tomorrow will be .
, % of the Moon is Illuminated

Today's Extremes

State Highs State Lows

Community

WunderPhotos

Upload Photos

1,891,516 photos uploaded!

WunderBlog® & News

Nearby

Air Quality

  Air Quality AQ Index Pollutant
Not available.

Snow Depth

Station Depth Elevation

Earthquake Activity

City Distance Mag. Time & Date
Minimum magnitude displayed is 2.5.

Coastal Water Temperatures

Place Temperature

Stations

Nearby Weather Stations

Station Location Temp. Windchill Dew Point Humidity Wind Precip. Elev Updated Type
                   

Watches & Warnings

There are currently no watches in effect.